Time;durP1;ratioP1;P1;durP2;ratioP2;P2;SDS_P1;SDS_P2;PMS_P1;PMS_P2;Temp;Humidity;BMP_temperature;BMP_pressure;BME280_temperature;BME280_humidity;BME280_pressure;Samples;Min_cycle;Max_cycle;Signal;HPM_P1;HPM_P2
2022/10/01 00:02:11;;;;;;;;;;;11.60;92.30;;;;;;5078396;28;19939;-80
2022/10/01 00:04:38;;;;;;;;;;;11.60;92.30;;;;;;5085305;28;19928;-80
2022/10/01 00:07:09;;;;;;;;;;;11.60;92.40;;;;;;5087279;28;20537;-79
2022/10/01 00:09:37;;;;;;;;;;;11.60;92.40;;;;;;5084213;28;20332;-79
2022/10/01 00:12:04;;;;;;;;;;;11.60;92.50;;;;;;5088226;28;19951;-80
2022/10/01 00:14:30;;;;;;;;;;;11.50;92.80;;;;;;5088601;28;19928;-80
2022/10/01 00:16:57;;;;;;;;;;;11.50;92.50;;;;;;5089037;28;19928;-80
2022/10/01 00:19:23;;;;;;;;;;;11.50;92.50;;;;;;5091407;28;20411;-80
2022/10/01 00:21:50;;;;;;;;;;;11.50;92.50;;;;;;5084482;28;19928;-81
2022/10/01 00:24:17;;;;;;;;;;;11.50;92.60;;;;;;5083731;28;19928;-80
2022/10/01 00:26:46;;;;;;;;;;;11.40;92.50;;;;;;5086182;28;20527;-80
2022/10/01 00:29:14;;;;;;;;;;;11.50;92.60;;;;;;5087516;28;19924;-81
2022/10/01 00:31:41;;;;;;;;;;;11.40;92.60;;;;;;5082716;28;19982;-80
2022/10/01 00:34:08;;;;;;;;;;;11.40;92.60;;;;;;5082630;28;19927;-80
2022/10/01 00:36:34;;;;;;;;;;;11.40;92.60;;;;;;5084392;28;19928;-80
2022/10/01 00:39:01;;;;;;;;;;;11.40;92.60;;;;;;5083030;28;19932;-81
2022/10/01 00:41:29;;;;;;;;;;;11.40;92.70;;;;;;5084677;28;20028;-81
2022/10/01 00:43:58;;;;;;;;;;;11.30;92.60;;;;;;5083731;28;19932;-81
2022/10/01 00:46:27;;;;;;;;;;;11.40;92.70;;;;;;5081523;28;19928;-79
2022/10/01 00:48:57;;;;;;;;;;;11.30;92.60;;;;;;5080006;28;19939;-81
2022/10/01 00:51:25;;;;;;;;;;;11.30;92.70;;;;;;5085574;28;19928;-79
2022/10/01 00:53:52;;;;;;;;;;;11.30;92.70;;;;;;5080055;28;19932;-81
2022/10/01 00:56:19;;;;;;;;;;;11.30;92.70;;;;;;5083909;28;19928;-81
2022/10/01 00:58:46;;;;;;;;;;;11.30;92.70;;;;;;5086392;28;20362;-80
2022/10/01 01:01:14;;;;;;;;;;;11.20;92.70;;;;;;5085973;28;19928;-81
2022/10/01 01:03:40;;;;;;;;;;;11.30;92.80;;;;;;5087053;28;19934;-81
2022/10/01 01:06:08;;;;;;;;;;;11.20;92.80;;;;;;5084774;28;19935;-81
2022/10/01 01:08:35;;;;;;;;;;;11.20;92.80;;;;;;5085541;28;19932;-81
2022/10/01 01:11:06;;;;;;;;;;;11.20;92.80;;;;;;5076774;28;19932;-82
2022/10/01 01:13:35;;;;;;;;;;;11.20;92.80;;;;;;5083825;28;19936;-81
2022/10/01 01:16:05;;;;;;;;;;;11.20;92.80;;;;;;5083130;28;19928;-80
2022/10/01 01:18:35;;;;;;;;;;;11.20;92.80;;;;;;5081583;28;19935;-81
2022/10/01 01:21:28;;;;;;;;;;;11.20;93.20;;;;;;5082900;28;20714;-81
2022/10/01 01:24:25;;;;;;;;;;;11.10;92.80;;;;;;5028616;28;19939;-81
2022/10/01 01:27:01;;;;;;;;;;;11.10;92.80;;;;;;5082660;28;19928;-82
2022/10/01 01:29:33;;;;;;;;;;;11.10;92.90;;;;;;5083109;28;19990;-81
2022/10/01 01:32:02;;;;;;;;;;;11.10;92.90;;;;;;5084181;28;19928;-80
2022/10/01 01:34:30;;;;;;;;;;;11.10;92.90;;;;;;5079227;28;19935;-81
2022/10/01 01:36:59;;;;;;;;;;;11.00;92.90;;;;;;5083136;28;19943;-82
2022/10/01 01:39:27;;;;;;;;;;;11.00;92.90;;;;;;5084910;28;19928;-80
2022/10/01 01:41:58;;;;;;;;;;;11.00;93.00;;;;;;5080996;28;19928;-80
2022/10/01 01:44:26;;;;;;;;;;;11.00;93.00;;;;;;5080004;28;19935;-82
2022/10/01 01:46:56;;;;;;;;;;;11.00;93.00;;;;;;5078982;28;20375;-81
2022/10/01 01:49:23;;;;;;;;;;;11.00;93.00;;;;;;5079379;28;19936;-82
2022/10/01 01:51:52;;;;;;;;;;;11.00;93.00;;;;;;5078684;28;20319;-81
2022/10/01 01:54:19;;;;;;;;;;;11.00;93.40;;;;;;5080734;28;19940;-82
2022/10/01 01:56:48;;;;;;;;;;;11.00;93.10;;;;;;5076597;28;19928;-81
2022/10/01 01:59:17;;;;;;;;;;;11.00;93.10;;;;;;5081416;28;19928;-82
2022/10/01 02:01:44;;;;;;;;;;;10.90;93.10;;;;;;5081076;28;20158;-80
2022/10/01 02:04:14;;;;;;;;;;;10.90;93.10;;;;;;5083779;28;20022;-81
2022/10/01 02:06:48;;;;;;;;;;;10.90;93.10;;;;;;5085131;28;20400;-81
2022/10/01 02:09:18;;;;;;;;;;;10.90;93.10;;;;;;5081018;28;20701;-80
2022/10/01 02:11:46;;;;;;;;;;;10.90;93.10;;;;;;5077241;28;19928;-80
2022/10/01 02:14:20;;;;;;;;;;;10.90;93.10;;;;;;5081913;28;19928;-81
2022/10/01 02:16:48;;;;;;;;;;;10.90;93.10;;;;;;5083850;28;19928;-81
2022/10/01 02:19:23;;;;;;;;;;;10.80;93.10;;;;;;5085646;28;19924;-81
2022/10/01 02:21:55;;;;;;;;;;;10.80;93.20;;;;;;5084471;28;19964;-81
2022/10/01 02:24:26;;;;;;;;;;;10.80;93.20;;;;;;5079228;28;19928;-80
2022/10/01 02:26:53;;;;;;;;;;;10.80;93.20;;;;;;5081512;28;19934;-82
2022/10/01 02:29:21;;;;;;;;;;;10.90;93.20;;;;;;5080685;28;19932;-81
2022/10/01 02:31:52;;;;;;;;;;;10.80;93.30;;;;;;5080966;28;20437;-81
2022/10/01 02:34:22;;;;;;;;;;;10.80;93.30;;;;;;5081136;28;20039;-80
2022/10/01 02:36:49;;;;;;;;;;;10.80;93.30;;;;;;5078459;28;19938;-81
2022/10/01 02:39:17;;;;;;;;;;;10.80;93.30;;;;;;5082861;28;20021;-80
2022/10/01 02:41:45;;;;;;;;;;;10.70;93.30;;;;;;5079285;28;19928;-80
2022/10/01 02:44:13;;;;;;;;;;;10.80;93.30;;;;;;5079853;28;19932;-80
2022/10/01 02:46:44;;;;;;;;;;;10.80;93.30;;;;;;5078955;28;19928;-80
2022/10/01 02:49:12;;;;;;;;;;;10.80;93.30;;;;;;5079883;28;20049;-80
2022/10/01 02:51:43;;;;;;;;;;;10.70;93.30;;;;;;5082127;28;19932;-80
2022/10/01 02:54:13;;;;;;;;;;;10.70;93.30;;;;;;5080168;28;19928;-80
2022/10/01 02:59:24;;;;;;;;;;;10.70;93.70;;;;;;5080520;28;19955;-80
2022/10/01 03:01:50;;;;;;;;;;;10.70;93.40;;;;;;5078456;28;19935;-81
2022/10/01 03:04:18;;;;;;;;;;;10.70;93.40;;;;;;5076618;28;20312;-80
2022/10/01 03:06:46;;;;;;;;;;;10.70;93.40;;;;;;5080466;28;19932;-80
2022/10/01 03:09:12;;;;;;;;;;;10.70;93.40;;;;;;5079654;28;19929;-80
2022/10/01 03:11:39;;;;;;;;;;;10.70;93.40;;;;;;5081967;28;19939;-80
2022/10/01 03:14:06;;;;;;;;;;;10.60;93.40;;;;;;5079000;28;19939;-80
2022/10/01 03:16:33;;;;;;;;;;;10.70;93.50;;;;;;5080882;28;19959;-80
2022/10/01 03:18:59;;;;;;;;;;;10.70;93.50;;;;;;5080003;28;19928;-81
2022/10/01 03:21:26;;;;;;;;;;;10.70;93.50;;;;;;5078490;28;20407;-80
2022/10/01 03:23:54;;;;;;;;;;;10.70;93.50;;;;;;5081160;28;19928;-80
2022/10/01 03:26:20;;;;;;;;;;;10.60;93.50;;;;;;5080063;28;19935;-81
2022/10/01 03:28:47;;;;;;;;;;;10.60;93.50;;;;;;5077777;28;19928;-79
2022/10/01 03:31:14;;;;;;;;;;;10.60;93.50;;;;;;5077094;28;19928;-80
2022/10/01 03:33:40;;;;;;;;;;;10.60;93.50;;;;;;5080551;28;19935;-80
2022/10/01 03:36:07;;;;;;;;;;;10.60;93.60;;;;;;5079993;28;19928;-81
2022/10/01 03:38:33;;;;;;;;;;;10.60;93.60;;;;;;5081239;28;19928;-80
2022/10/01 03:41:01;;;;;;;;;;;10.60;93.60;;;;;;5079540;28;19928;-80
2022/10/01 03:43:29;;;;;;;;;;;10.60;93.60;;;;;;5081084;28;19939;-80
2022/10/01 03:45:55;;;;;;;;;;;10.60;93.60;;;;;;5078834;28;20027;-79
2022/10/01 03:48:22;;;;;;;;;;;10.60;93.60;;;;;;5082084;28;19932;-80
2022/10/01 03:50:53;;;;;;;;;;;10.60;93.60;;;;;;5082665;28;19928;-81
2022/10/01 03:53:20;;;;;;;;;;;10.60;93.60;;;;;;5083579;28;19928;-80
2022/10/01 03:55:46;;;;;;;;;;;10.60;93.60;;;;;;5083363;28;19935;-80
2022/10/01 03:58:14;;;;;;;;;;;10.50;93.60;;;;;;5082519;28;19935;-80
2022/10/01 04:00:41;;;;;;;;;;;10.60;93.60;;;;;;5083831;28;19935;-80
2022/10/01 04:03:08;;;;;;;;;;;10.60;93.70;;;;;;5082361;28;19928;-81
2022/10/01 04:05:34;;;;;;;;;;;10.60;93.70;;;;;;5083749;28;20378;-81
2022/10/01 04:08:01;;;;;;;;;;;10.50;94.00;;;;;;5085086;28;19928;-80
2022/10/01 04:10:27;;;;;;;;;;;10.60;93.70;;;;;;5083780;28;19932;-81
2022/10/01 04:12:54;;;;;;;;;;;10.50;93.70;;;;;;5084484;28;19935;-81
2022/10/01 04:15:23;;;;;;;;;;;10.60;93.80;;;;;;5082963;28;19932;-80
2022/10/01 04:17:49;;;;;;;;;;;10.50;93.80;;;;;;5083016;28;19928;-80
2022/10/01 04:20:17;;;;;;;;;;;10.50;93.80;;;;;;5083354;28;19939;-80
2022/10/01 04:22:45;;;;;;;;;;;10.50;93.80;;;;;;5081430;28;19954;-80
2022/10/01 04:25:11;;;;;;;;;;;10.50;93.80;;;;;;5084094;28;19998;-81
2022/10/01 04:27:38;;;;;;;;;;;10.50;93.80;;;;;;5083614;28;19931;-80
2022/10/01 04:30:06;;;;;;;;;;;10.50;93.80;;;;;;5082741;28;20312;-80
2022/10/01 04:32:34;;;;;;;;;;;10.50;93.80;;;;;;5083184;28;20722;-80
2022/10/01 04:35:03;;;;;;;;;;;10.50;93.80;;;;;;5083063;28;20403;-80
2022/10/01 04:37:30;;;;;;;;;;;10.50;93.80;;;;;;5083072;28;19939;-80
2022/10/01 04:39:56;;;;;;;;;;;10.50;93.80;;;;;;5086209;28;20343;-80
2022/10/01 04:42:23;;;;;;;;;;;10.50;93.80;;;;;;5087538;28;20772;-81
2022/10/01 04:44:50;;;;;;;;;;;10.50;93.80;;;;;;5084134;28;20411;-80
2022/10/01 04:47:16;;;;;;;;;;;10.50;93.80;;;;;;5086698;28;19943;-80
2022/10/01 04:49:44;;;;;;;;;;;10.50;93.80;;;;;;5086225;28;20316;-80
2022/10/01 04:52:11;;;;;;;;;;;10.50;93.90;;;;;;5087529;28;19928;-79
2022/10/01 04:54:37;;;;;;;;;;;10.50;93.90;;;;;;5085394;28;20025;-81
2022/10/01 04:57:04;;;;;;;;;;;10.50;93.90;;;;;;5084550;28;19932;-80
2022/10/01 04:59:30;;;;;;;;;;;10.50;93.90;;;;;;5086042;28;19928;-80
2022/10/01 05:01:57;;;;;;;;;;;10.50;93.90;;;;;;5086039;28;19985;-79
2022/10/01 05:04:26;;;;;;;;;;;10.50;93.90;;;;;;5085713;28;19928;-81
2022/10/01 05:06:55;;;;;;;;;;;10.50;94.00;;;;;;5082193;28;20014;-81
2022/10/01 05:09:21;;;;;;;;;;;10.50;94.00;;;;;;5086573;28;19932;-81
2022/10/01 05:11:50;;;;;;;;;;;10.50;94.00;;;;;;5078348;28;19933;-80
2022/10/01 05:14:18;;;;;;;;;;;10.50;94.00;;;;;;5076073;28;19935;-80
2022/10/01 05:16:46;;;;;;;;;;;10.50;94.00;;;;;;5074973;28;20300;-81
2022/10/01 05:19:13;;;;;;;;;;;10.50;94.10;;;;;;5080326;28;19929;-80
2022/10/01 05:21:39;;;;;;;;;;;10.50;94.10;;;;;;5078191;28;20354;-80
2022/10/01 05:24:08;;;;;;;;;;;10.50;94.50;;;;;;5083290;28;19928;-80
2022/10/01 05:26:35;;;;;;;;;;;10.50;94.20;;;;;;5078585;28;20423;-81
2022/10/01 05:29:02;;;;;;;;;;;10.50;94.50;;;;;;5081603;28;20461;-80
2022/10/01 05:31:29;;;;;;;;;;;10.50;94.30;;;;;;5080001;28;19929;-81
2022/10/01 05:33:55;;;;;;;;;;;10.50;94.30;;;;;;5079613;28;20423;-81
2022/10/01 05:36:22;;;;;;;;;;;10.50;94.30;;;;;;5080899;28;19928;-81
2022/10/01 05:38:51;;;;;;;;;;;10.50;94.40;;;;;;5083848;28;19939;-81
2022/10/01 05:41:19;;;;;;;;;;;10.50;94.40;;;;;;5081551;28;19940;-81
2022/10/01 05:43:47;;;;;;;;;;;10.50;94.50;;;;;;5083013;28;20578;-81
2022/10/01 05:46:14;;;;;;;;;;;10.50;94.50;;;;;;5079281;28;19954;-81
2022/10/01 05:48:41;;;;;;;;;;;10.40;94.50;;;;;;5081104;28;20376;-81
2022/10/01 05:51:07;;;;;;;;;;;10.50;94.50;;;;;;5083749;28;19928;-80
2022/10/01 05:53:34;;;;;;;;;;;10.50;94.50;;;;;;5085067;28;19928;-81
2022/10/01 05:56:01;;;;;;;;;;;10.50;94.60;;;;;;5082821;28;19928;-81
2022/10/01 05:58:30;;;;;;;;;;;10.50;94.60;;;;;;5086317;28;20638;-81
2022/10/01 06:00:56;;;;;;;;;;;10.50;94.60;;;;;;5085418;28;19935;-81
2022/10/01 06:03:23;;;;;;;;;;;10.50;94.60;;;;;;5081058;28;19935;-81
2022/10/01 06:05:50;;;;;;;;;;;10.50;94.60;;;;;;5083246;28;19928;-80
2022/10/01 06:08:17;;;;;;;;;;;10.50;94.60;;;;;;5085055;28;19936;-81
2022/10/01 06:10:43;;;;;;;;;;;10.50;94.70;;;;;;5083195;28;19935;-81
2022/10/01 06:13:16;;;;;;;;;;;10.50;94.60;;;;;;5082180;28;19932;-81
2022/10/01 06:15:45;;;;;;;;;;;10.50;94.70;;;;;;5085879;28;19935;-81
2022/10/01 06:18:12;;;;;;;;;;;10.50;94.70;;;;;;5085249;28;19932;-81
2022/10/01 06:20:39;;;;;;;;;;;10.50;94.70;;;;;;5086380;28;19935;-81
2022/10/01 06:23:10;;;;;;;;;;;10.50;94.70;;;;;;5086404;28;20399;-81
2022/10/01 06:25:37;;;;;;;;;;;10.50;94.70;;;;;;5087978;28;19939;-81
2022/10/01 06:28:04;;;;;;;;;;;10.50;94.70;;;;;;5080850;28;19932;-81
2022/10/01 06:30:31;;;;;;;;;;;10.60;94.70;;;;;;5086901;28;19928;-81
2022/10/01 06:33:01;;;;;;;;;;;10.50;94.70;;;;;;5087455;28;20384;-81
2022/10/01 06:35:28;;;;;;;;;;;10.60;94.80;;;;;;5086235;28;19935;-81
2022/10/01 06:37:54;;;;;;;;;;;10.60;94.80;;;;;;5086867;28;19935;-81
2022/10/01 06:40:21;;;;;;;;;;;10.50;94.80;;;;;;5087525;28;20498;-81
2022/10/01 06:42:48;;;;;;;;;;;10.50;94.80;;;;;;5086899;28;19928;-81
2022/10/01 06:45:14;;;;;;;;;;;10.50;94.80;;;;;;5078932;28;19985;-82
2022/10/01 06:47:41;;;;;;;;;;;10.60;94.90;;;;;;5084740;28;19950;-81
2022/10/01 06:50:09;;;;;;;;;;;10.50;95.00;;;;;;5082827;28;19928;-81
2022/10/01 06:52:51;;;;;;;;;;;10.60;95.00;;;;;;5084643;28;19938;-81
2022/10/01 06:55:18;;;;;;;;;;;10.60;95.30;;;;;;5086059;28;19932;-81
2022/10/01 06:57:45;;;;;;;;;;;10.50;95.00;;;;;;5080126;28;19983;-81
2022/10/01 07:00:12;;;;;;;;;;;10.60;95.00;;;;;;5082776;28;20050;-81
2022/10/01 07:02:39;;;;;;;;;;;10.60;95.00;;;;;;5077331;28;19932;-80
2022/10/01 07:05:06;;;;;;;;;;;10.60;95.10;;;;;;5081060;28;19928;-80
2022/10/01 07:07:36;;;;;;;;;;;10.60;95.10;;;;;;5079567;28;19935;-80
2022/10/01 07:10:03;;;;;;;;;;;10.60;95.10;;;;;;5083738;28;19963;-81
2022/10/01 07:12:29;;;;;;;;;;;10.60;95.10;;;;;;5073906;28;20056;-81
2022/10/01 07:14:56;;;;;;;;;;;10.60;95.10;;;;;;5072546;28;19932;-80
2022/10/01 07:17:22;;;;;;;;;;;10.60;95.20;;;;;;5076520;28;19927;-81
2022/10/01 07:19:49;;;;;;;;;;;10.60;95.20;;;;;;5073027;28;19939;-81
2022/10/01 07:22:16;;;;;;;;;;;10.60;95.20;;;;;;5077386;28;19932;-81
2022/10/01 07:24:44;;;;;;;;;;;10.60;95.30;;;;;;5074583;28;20396;-81
2022/10/01 07:27:11;;;;;;;;;;;10.60;95.30;;;;;;5078053;28;19963;-81
2022/10/01 07:29:38;;;;;;;;;;;10.60;95.40;;;;;;5073809;28;19932;-81
2022/10/01 07:32:07;;;;;;;;;;;10.60;95.40;;;;;;5078944;28;19928;-82
2022/10/01 07:34:34;;;;;;;;;;;10.60;95.40;;;;;;5076623;28;19928;-81
2022/10/01 07:37:01;;;;;;;;;;;10.60;95.40;;;;;;5077348;28;19928;-81
2022/10/01 07:39:28;;;;;;;;;;;10.60;95.40;;;;;;5080892;28;19960;-81
2022/10/01 07:41:58;;;;;;;;;;;10.70;95.40;;;;;;5075458;28;19943;-80
2022/10/01 07:44:25;;;;;;;;;;;10.60;95.40;;;;;;5080023;28;19938;-81
2022/10/01 07:46:51;;;;;;;;;;;10.60;95.50;;;;;;5076269;28;19986;-81
2022/10/01 07:49:19;;;;;;;;;;;10.60;95.60;;;;;;5070199;28;19928;-81
2022/10/01 07:51:47;;;;;;;;;;;10.70;95.60;;;;;;5072896;28;19932;-81
2022/10/01 07:54:15;;;;;;;;;;;10.60;95.60;;;;;;5075804;28;19934;-81
2022/10/01 07:56:41;;;;;;;;;;;10.70;95.60;;;;;;5076229;28;19958;-81
2022/10/01 07:59:09;;;;;;;;;;;10.70;95.60;;;;;;5073245;28;19981;-80
2022/10/01 08:01:36;;;;;;;;;;;10.70;95.70;;;;;;5077388;28;19942;-81
2022/10/01 08:05:16;;;;;;;;;;;10.70;95.80;;;;;;5071475;28;20392;-81
2022/10/01 08:06:51;;;;;;;;;;;10.70;95.80;;;;;;5072848;28;20430;-81
2022/10/01 08:09:18;;;;;;;;;;;10.70;95.80;;;;;;5072367;28;19932;-81
2022/10/01 08:11:47;;;;;;;;;;;10.70;95.90;;;;;;5079799;28;19978;-80
2022/10/01 08:14:15;;;;;;;;;;;10.70;95.90;;;;;;5077451;28;19928;-82
2022/10/01 08:16:41;;;;;;;;;;;10.70;96.00;;;;;;5078517;28;20842;-80
2022/10/01 08:19:08;;;;;;;;;;;10.70;96.00;;;;;;5079562;28;19929;-81
2022/10/01 08:21:35;;;;;;;;;;;10.70;96.10;;;;;;5078701;28;19929;-81
2022/10/01 08:24:02;;;;;;;;;;;10.70;96.10;;;;;;5073660;28;20713;-81
2022/10/01 08:26:28;;;;;;;;;;;10.70;96.10;;;;;;5085390;28;19993;-81
2022/10/01 08:28:55;;;;;;;;;;;10.70;96.20;;;;;;5082922;28;19985;-81
2022/10/01 08:31:23;;;;;;;;;;;10.70;96.20;;;;;;5078790;28;19935;-81
2022/10/01 08:33:50;;;;;;;;;;;10.70;96.20;;;;;;5078582;28;19928;-82
2022/10/01 08:36:17;;;;;;;;;;;10.70;96.10;;;;;;5078729;28;20005;-82
2022/10/01 08:38:45;;;;;;;;;;;10.70;96.20;;;;;;5078862;28;19935;-84
2022/10/01 08:41:17;;;;;;;;;;;10.70;96.30;;;;;;5079399;28;19943;-80
2022/10/01 08:43:44;;;;;;;;;;;10.70;96.40;;;;;;5079191;28;20052;-81
2022/10/01 08:46:12;;;;;;;;;;;10.80;96.50;;;;;;5080315;28;19935;-81
2022/10/01 08:48:44;;;;;;;;;;;10.80;96.50;;;;;;5079278;28;19932;-81
2022/10/01 08:51:13;;;;;;;;;;;10.80;96.60;;;;;;5078681;28;19935;-80
2022/10/01 08:53:42;;;;;;;;;;;10.80;96.60;;;;;;5079872;28;19935;-80
2022/10/01 08:56:14;;;;;;;;;;;10.80;96.70;;;;;;5077191;28;20308;-81
2022/10/01 08:58:43;;;;;;;;;;;10.80;96.70;;;;;;5080955;28;21964;-80
2022/10/01 09:01:10;;;;;;;;;;;10.80;96.70;;;;;;5078928;28;19928;-81
2022/10/01 09:03:37;;;;;;;;;;;10.80;96.70;;;;;;5078026;28;19932;-81
2022/10/01 09:06:12;;;;;;;;;;;10.80;96.70;;;;;;5078659;28;19932;-81
2022/10/01 09:08:46;;;;;;;;;;;10.80;96.80;;;;;;5077910;28;19932;-80
2022/10/01 09:11:17;;;;;;;;;;;10.80;96.80;;;;;;5081080;28;19935;-80
2022/10/01 09:13:58;;;;;;;;;;;10.80;96.90;;;;;;5076507;28;19928;-80
2022/10/01 09:16:28;;;;;;;;;;;10.80;96.90;;;;;;5079809;28;19941;-80
2022/10/01 09:19:00;;;;;;;;;;;10.80;97.00;;;;;;5077897;28;19939;-79
2022/10/01 09:21:35;;;;;;;;;;;10.80;97.10;;;;;;5079956;28;19945;-81
2022/10/01 09:24:03;;;;;;;;;;;10.80;97.10;;;;;;5082205;28;19939;-81
2022/10/01 09:26:29;;;;;;;;;;;10.80;97.20;;;;;;5077733;28;19939;-80
2022/10/01 09:28:58;;;;;;;;;;;10.90;97.30;;;;;;5079883;28;19932;-81
2022/10/01 09:31:27;;;;;;;;;;;10.80;97.30;;;;;;5082026;28;19928;-81
2022/10/01 09:33:56;;;;;;;;;;;10.90;97.30;;;;;;5080074;28;19928;-81
2022/10/01 09:36:26;;;;;;;;;;;10.80;97.40;;;;;;5082311;28;19964;-82
2022/10/01 09:38:57;;;;;;;;;;;10.80;97.40;;;;;;5082537;28;19999;-82
2022/10/01 09:41:24;;;;;;;;;;;10.90;97.50;;;;;;5077066;28;19928;-82
2022/10/01 09:43:51;;;;;;;;;;;10.80;97.50;;;;;;5082781;28;19932;-80
2022/10/01 09:46:18;;;;;;;;;;;10.90;97.50;;;;;;5084412;28;19932;-84
2022/10/01 09:48:49;;;;;;;;;;;10.90;97.50;;;;;;5081678;28;19932;-82
2022/10/01 09:51:17;;;;;;;;;;;10.80;97.80;;;;;;5078937;28;19932;-82
2022/10/01 09:53:46;;;;;;;;;;;10.90;97.50;;;;;;5077970;28;20031;-84
2022/10/01 09:56:18;;;;;;;;;;;10.90;97.40;;;;;;5078729;28;19928;-82
2022/10/01 09:58:47;;;;;;;;;;;10.90;97.40;;;;;;5081553;28;19931;-80
2022/10/01 10:01:19;;;;;;;;;;;10.90;97.50;;;;;;5081998;28;19938;-81
2022/10/01 10:03:53;;;;;;;;;;;10.90;97.50;;;;;;5079815;28;19928;-81
2022/10/01 10:06:22;;;;;;;;;;;10.90;97.60;;;;;;5082908;28;19928;-82
2022/10/01 10:08:51;;;;;;;;;;;10.90;97.70;;;;;;5088450;28;19939;-81
2022/10/01 10:11:22;;;;;;;;;;;10.90;97.80;;;;;;5085532;28;19936;-82
2022/10/01 10:13:50;;;;;;;;;;;10.90;97.90;;;;;;5080250;28;19955;-81
2022/10/01 10:16:19;;;;;;;;;;;10.90;98.00;;;;;;5079863;28;19924;-82
2022/10/01 10:18:51;;;;;;;;;;;11.00;98.10;;;;;;5086539;28;19935;-82
2022/10/01 10:21:20;;;;;;;;;;;10.90;98.10;;;;;;5076885;28;19990;-81
2022/10/01 10:23:48;;;;;;;;;;;10.90;98.20;;;;;;5079161;28;19928;-81
2022/10/01 10:26:18;;;;;;;;;;;10.90;98.30;;;;;;5080417;28;19960;-81
2022/10/01 10:28:46;;;;;;;;;;;11.00;98.50;;;;;;5080157;28;20629;-81
2022/10/01 10:31:15;;;;;;;;;;;11.00;98.50;;;;;;5078183;28;20246;-81
2022/10/01 10:33:46;;;;;;;;;;;11.00;98.60;;;;;;5080392;28;20422;-80
2022/10/01 10:36:14;;;;;;;;;;;11.00;98.60;;;;;;5079142;28;19932;-82
2022/10/01 10:38:44;;;;;;;;;;;11.00;98.60;;;;;;5075710;28;20004;-80
2022/10/01 10:41:15;;;;;;;;;;;11.10;98.60;;;;;;5075309;28;19928;-80
2022/10/01 10:43:43;;;;;;;;;;;11.10;98.60;;;;;;5074482;28;20058;-82
2022/10/01 10:46:11;;;;;;;;;;;11.10;98.60;;;;;;5079360;28;19932;-80
2022/10/01 10:48:42;;;;;;;;;;;11.10;98.60;;;;;;5077897;28;19950;-78
2022/10/01 10:51:09;;;;;;;;;;;11.10;98.60;;;;;;5076370;28;19924;-79
2022/10/01 10:53:40;;;;;;;;;;;11.10;98.60;;;;;;5077196;28;21952;-80
2022/10/01 10:56:14;;;;;;;;;;;11.20;98.60;;;;;;5077346;28;19928;-79
2022/10/01 10:58:43;;;;;;;;;;;11.20;98.70;;;;;;5071093;28;19970;-79
2022/10/01 11:01:15;;;;;;;;;;;11.20;98.80;;;;;;5070188;28;20023;-79
2022/10/01 11:03:43;;;;;;;;;;;11.20;98.80;;;;;;5085782;28;19934;-79
2022/10/01 11:06:11;;;;;;;;;;;11.20;98.90;;;;;;5077734;28;20214;-80
2022/10/01 11:08:38;;;;;;;;;;;11.20;99.00;;;;;;5081454;28;19927;-81
2022/10/01 11:11:09;;;;;;;;;;;11.20;99.00;;;;;;5074015;28;19932;-82
2022/10/01 11:13:44;;;;;;;;;;;11.30;99.00;;;;;;5076424;28;20484;-81
2022/10/01 11:16:28;;;;;;;;;;;11.30;99.00;;;;;;5083782;28;19928;-80
2022/10/01 11:19:02;;;;;;;;;;;11.30;99.00;;;;;;5077585;28;20281;-82
2022/10/01 11:21:40;;;;;;;;;;;11.30;98.90;;;;;;5073906;28;21417;-81
2022/10/01 11:24:14;;;;;;;;;;;11.30;98.90;;;;;;5080607;28;19942;-81
2022/10/01 11:26:46;;;;;;;;;;;11.40;98.90;;;;;;5078671;28;20418;-81
2022/10/01 11:29:21;;;;;;;;;;;11.30;98.80;;;;;;5078163;28;19936;-81
2022/10/01 11:31:52;;;;;;;;;;;11.40;98.80;;;;;;5078459;28;20031;-82
2022/10/01 11:34:32;;;;;;;;;;;11.40;98.70;;;;;;5078337;28;19939;-81
2022/10/01 11:37:02;;;;;;;;;;;11.40;98.60;;;;;;5075763;28;19935;-81
2022/10/01 11:39:30;;;;;;;;;;;11.40;98.50;;;;;;5078641;28;19934;-82
2022/10/01 11:42:00;;;;;;;;;;;11.40;98.50;;;;;;5075601;28;19936;-80
2022/10/01 11:44:29;;;;;;;;;;;11.40;98.60;;;;;;5078055;28;19935;-80
2022/10/01 11:46:59;;;;;;;;;;;11.40;98.60;;;;;;5080354;28;19928;-81
2022/10/01 11:49:37;;;;;;;;;;;11.50;98.70;;;;;;5076869;28;19928;-80
2022/10/01 11:52:08;;;;;;;;;;;11.50;98.70;;;;;;5079480;28;19928;-80
2022/10/01 11:54:36;;;;;;;;;;;11.50;98.70;;;;;;5074545;28;19935;-81
2022/10/01 11:59:52;;;;;;;;;;;11.50;98.60;;;;;;5078663;28;19930;-82
2022/10/01 12:02:24;;;;;;;;;;;11.50;98.50;;;;;;5076663;28;19932;-84
2022/10/01 12:04:54;;;;;;;;;;;11.50;98.50;;;;;;5079572;28;20138;-82
2022/10/01 12:07:25;;;;;;;;;;;11.50;98.50;;;;;;5084343;28;20418;-81
2022/10/01 12:09:57;;;;;;;;;;;11.50;98.60;;;;;;5079017;28;20030;-81
2022/10/01 12:12:26;;;;;;;;;;;11.60;98.70;;;;;;5074419;28;20399;-82
2022/10/01 12:14:56;;;;;;;;;;;11.60;99.00;;;;;;5075509;28;19932;-81
2022/10/01 12:17:26;;;;;;;;;;;11.60;98.60;;;;;;5076543;28;19928;-81
2022/10/01 12:19:55;;;;;;;;;;;11.60;98.60;;;;;;5073539;28;19924;-82
2022/10/01 12:22:24;;;;;;;;;;;11.60;98.60;;;;;;5077306;28;19932;-81
2022/10/01 12:24:51;;;;;;;;;;;11.70;98.60;;;;;;5081553;28;19939;-81
2022/10/01 12:27:29;;;;;;;;;;;11.60;98.40;;;;;;5078318;28;19929;-81
2022/10/01 12:29:58;;;;;;;;;;;11.70;98.40;;;;;;5080006;28;19928;-82
2022/10/01 12:32:31;;;;;;;;;;;11.70;98.40;;;;;;5082946;28;20521;-82
2022/10/01 12:35:03;;;;;;;;;;;11.70;98.30;;;;;;5082744;28;19928;-83
2022/10/01 12:37:34;;;;;;;;;;;11.70;98.30;;;;;;5083296;28;19928;-84
2022/10/01 12:40:09;;;;;;;;;;;11.70;98.40;;;;;;5085139;28;19971;-83
2022/10/01 12:42:42;;;;;;;;;;;11.70;98.40;;;;;;5077423;28;19974;-81
2022/10/01 12:45:19;;;;;;;;;;;11.80;98.40;;;;;;5080380;28;20416;-81
2022/10/01 12:47:51;;;;;;;;;;;11.80;98.40;;;;;;5080130;28;19932;-81
2022/10/01 12:50:22;;;;;;;;;;;11.80;98.30;;;;;;5079255;28;20419;-78
2022/10/01 12:52:56;;;;;;;;;;;11.80;98.30;;;;;;5071702;28;19928;-78
2022/10/01 12:55:29;;;;;;;;;;;11.80;98.30;;;;;;5073843;28;19928;-78
2022/10/01 12:58:00;;;;;;;;;;;11.80;98.30;;;;;;5083917;28;19950;-79
2022/10/01 13:00:30;;;;;;;;;;;11.90;98.30;;;;;;5077577;28;20405;-79
2022/10/01 13:03:17;;;;;;;;;;;11.90;98.30;;;;;;5085130;28;19964;-79
2022/10/01 13:05:51;;;;;;;;;;;11.90;98.30;;;;;;5084738;28;19932;-78
2022/10/01 13:08:27;;;;;;;;;;;11.90;98.40;;;;;;5082449;28;19928;-78
2022/10/01 13:10:58;;;;;;;;;;;11.90;98.30;;;;;;5081378;28;19936;-81
2022/10/01 13:13:26;;;;;;;;;;;12.00;98.30;;;;;;5077991;28;20027;-81
2022/10/01 13:15:57;;;;;;;;;;;12.00;98.30;;;;;;5079841;28;19924;-82
2022/10/01 13:18:31;;;;;;;;;;;12.10;98.30;;;;;;5081044;28;19935;-80
2022/10/01 13:21:04;;;;;;;;;;;12.00;98.20;;;;;;5084144;28;20557;-81
2022/10/01 13:23:34;;;;;;;;;;;12.10;98.20;;;;;;5080395;28;19943;-81
2022/10/01 13:26:04;;;;;;;;;;;12.10;98.50;;;;;;5081785;28;19932;-82
2022/10/01 13:28:36;;;;;;;;;;;12.10;98.10;;;;;;5079642;28;19932;-81
2022/10/01 13:31:11;;;;;;;;;;;12.10;98.10;;;;;;5075219;28;19939;-80
2022/10/01 13:33:39;;;;;;;;;;;12.10;98.00;;;;;;5081937;28;19989;-80
2022/10/01 13:36:06;;;;;;;;;;;12.10;98.00;;;;;;5078651;28;19938;-80
2022/10/01 13:38:41;;;;;;;;;;;12.20;98.00;;;;;;5081514;28;19928;-80
2022/10/01 13:41:17;;;;;;;;;;;12.20;98.00;;;;;;5080894;28;19928;-81
2022/10/01 13:43:48;;;;;;;;;;;12.20;97.90;;;;;;5074673;28;19935;-81
2022/10/01 13:46:15;;;;;;;;;;;12.20;97.90;;;;;;5081761;28;20779;-80
2022/10/01 13:48:47;;;;;;;;;;;12.30;97.90;;;;;;5078892;28;20713;-79
2022/10/01 13:51:14;;;;;;;;;;;12.30;97.90;;;;;;5074983;28;19935;-80
2022/10/01 13:53:46;;;;;;;;;;;12.30;97.90;;;;;;5077330;28;20404;-80
2022/10/01 13:56:14;;;;;;;;;;;12.30;97.90;;;;;;5073889;28;19959;-79
2022/10/01 13:58:41;;;;;;;;;;;12.30;97.90;;;;;;5079220;28;19936;-78
2022/10/01 14:01:23;;;;;;;;;;;12.40;97.90;;;;;;5082838;28;20285;-78
2022/10/01 14:03:53;;;;;;;;;;;12.30;97.80;;;;;;5073223;28;19939;-78
2022/10/01 14:06:24;;;;;;;;;;;12.40;97.80;;;;;;5073159;28;19928;-76
2022/10/01 14:08:52;;;;;;;;;;;12.40;97.90;;;;;;5078777;28;19928;-79
2022/10/01 14:16:55;;;;;;;;;;;12.50;97.90;;;;;;5075852;28;19946;-77
2022/10/01 14:19:24;;;;;;;;;;;12.50;97.90;;;;;;5082746;28;19975;-78
2022/10/01 14:21:56;;;;;;;;;;;12.50;97.80;;;;;;5080780;28;19928;-80
2022/10/01 14:24:28;;;;;;;;;;;12.60;97.80;;;;;;5078351;28;19928;-78
2022/10/01 14:26:56;;;;;;;;;;;12.60;97.70;;;;;;5082771;28;20013;-77
2022/10/01 14:29:30;;;;;;;;;;;12.70;97.90;;;;;;5079501;28;19928;-78
2022/10/01 14:32:02;;;;;;;;;;;12.70;97.70;;;;;;5080170;28;19935;-77
2022/10/01 14:34:42;;;;;;;;;;;12.70;97.60;;;;;;5080479;28;19928;-78
2022/10/01 14:37:12;;;;;;;;;;;12.70;97.50;;;;;;5080782;28;20600;-78
2022/10/01 14:39:38;;;;;;;;;;;12.80;97.60;;;;;;5079801;28;19936;-79